createdAt,value
2019-04-11T00:04:06.610Z,6.80
2019-04-11T00:09:11.844Z,9.53
2019-04-11T00:14:15.915Z,10.13
2019-04-11T00:19:19.495Z,9.83
2019-04-11T00:24:22.990Z,8.67
2019-04-11T00:29:26.788Z,9.70
2019-04-11T00:34:31.069Z,7.77
2019-04-11T00:39:35.404Z,8.03
2019-04-11T00:44:39.001Z,9.23
2019-04-11T00:49:42.962Z,8.07
2019-04-11T00:54:46.986Z,8.77
2019-04-11T00:59:50.948Z,7.17
2019-04-11T01:04:54.471Z,6.80
2019-04-11T01:09:58.922Z,7.20
2019-04-11T01:15:03.175Z,7.03
2019-04-11T01:20:08.262Z,8.83
2019-04-11T01:25:13.228Z,9.10
2019-04-11T01:30:19.476Z,7.47
2019-04-11T01:35:23.512Z,6.40
2019-04-11T01:40:27.142Z,6.07
2019-04-11T01:45:31.662Z,7.00
2019-04-11T01:50:36.948Z,6.63
2019-04-11T01:55:40.861Z,9.03
2019-04-11T02:00:46.227Z,8.27
2019-04-11T02:05:49.822Z,8.67
2019-04-11T02:10:53.306Z,12.23
2019-04-11T02:15:58.350Z,7.40
2019-04-11T02:21:03.130Z,6.10
2019-04-11T02:26:09.904Z,8.53
2019-04-11T02:31:13.917Z,6.50
2019-04-11T02:36:18.803Z,9.13
2019-04-11T02:41:22.908Z,7.73
2019-04-11T02:46:35.246Z,8.30
2019-04-11T02:51:31.575Z,7.83
2019-04-11T02:56:36.378Z,10.87
2019-04-11T03:01:42.086Z,7.57
2019-04-11T03:06:47.962Z,6.87
2019-04-11T03:11:51.722Z,7.33
2019-04-11T03:17:04.161Z,9.23
2019-04-11T03:22:01.557Z,8.10
2019-04-11T03:27:07.868Z,9.43
2019-04-11T03:32:48.843Z,8.27
2019-04-11T03:37:48.024Z,8.67
2019-04-11T03:42:38.053Z,9.30
2019-04-11T03:47:37.572Z,8.03
2019-04-11T03:52:32.733Z,7.33
2019-04-11T03:57:37.370Z,8.07
2019-04-11T04:02:41.427Z,7.80
2019-04-11T04:07:46.506Z,9.17
2019-04-11T04:12:51.754Z,8.87
2019-04-11T04:18:15.053Z,6.57
2019-04-11T04:23:20.835Z,6.23
2019-04-11T04:28:24.596Z,8.70
2019-04-11T04:33:29.459Z,8.33
2019-04-11T04:38:33.879Z,9.07
2019-04-11T04:43:38.793Z,9.03
2019-04-11T04:48:43.385Z,9.00
2019-04-11T04:53:48.132Z,9.53
2019-04-11T04:58:51.744Z,8.40
2019-04-11T05:03:56.366Z,10.93
2019-04-11T05:09:00.350Z,12.10
2019-04-11T05:14:05.087Z,8.43
2019-04-11T05:19:08.697Z,7.33
2019-04-11T05:24:12.514Z,7.00
2019-04-11T05:29:16.035Z,8.90
2019-04-11T05:34:20.250Z,8.23
2019-04-11T05:39:23.846Z,9.47
2019-04-11T05:44:28.406Z,10.27
2019-04-11T05:49:37.309Z,9.53
2019-04-11T05:54:41.846Z,8.97
2019-04-11T05:59:52.081Z,6.80
2019-04-11T06:04:56.082Z,10.37
2019-04-11T06:10:12.880Z,9.90
2019-04-11T06:15:36.358Z,8.97
2019-04-11T06:20:43.051Z,10.60
2019-04-11T06:25:57.386Z,10.33
2019-04-11T06:31:20.208Z,9.67
2019-04-11T06:36:41.450Z,12.03
2019-04-11T06:42:04.212Z,12.37
2019-04-11T06:47:29.181Z,11.33
2019-04-11T06:52:34.877Z,8.20
2019-04-11T06:57:42.737Z,10.57
2019-04-11T07:02:48.671Z,11.17
2019-04-11T07:07:57.692Z,11.97
2019-04-11T07:13:12.086Z,13.97
2019-04-11T07:18:33.803Z,12.80
2019-04-11T07:23:55.548Z,11.20
2019-04-11T07:29:13.070Z,13.80
2019-04-11T07:34:24.245Z,15.10
2019-04-11T07:39:29.354Z,11.30
2019-04-11T07:44:34.437Z,10.67
2019-04-11T07:49:42.884Z,10.80
2019-04-11T07:54:47.657Z,11.27
2019-04-11T08:00:08.207Z,10.60
2019-04-11T08:05:23.386Z,14.77
2019-04-11T08:10:46.913Z,13.53
2019-04-11T08:15:52.010Z,15.93
2019-04-11T08:20:57.428Z,12.43
2019-04-11T08:26:19.842Z,12.70
2019-04-11T08:31:28.765Z,16.53
2019-04-11T08:36:50.497Z,11.23
2019-04-11T08:42:12.838Z,10.60
2019-04-11T08:47:18.235Z,13.60
2019-04-11T08:52:26.190Z,11.37
2019-04-11T08:57:41.543Z,10.67
2019-04-11T09:02:47.848Z,11.70
2019-04-11T09:08:00.182Z,11.60
2019-04-11T09:13:05.351Z,11.53
2019-04-11T09:18:11.847Z,12.00
2019-04-11T09:23:14.004Z,11.47
2019-04-11T09:28:19.655Z,9.93
2019-04-11T09:33:24.866Z,11.70
2019-04-11T09:38:32.817Z,11.90
2019-04-11T09:43:38.018Z,11.53
2019-04-11T09:48:46.374Z,11.30
2019-04-11T09:53:51.458Z,10.10
2019-04-11T09:58:58.243Z,12.07
2019-04-11T10:04:01.666Z,11.03
2019-04-11T10:09:07.929Z,10.37
2019-04-11T10:14:15.790Z,12.57
2019-04-11T10:19:24.347Z,11.77
2019-04-11T10:24:35.112Z,11.30
2019-04-11T10:29:56.765Z,10.93
2019-04-11T10:35:14.594Z,11.57
2019-04-11T10:40:36.398Z,9.60
2019-04-11T10:45:56.361Z,10.07
2019-04-11T10:51:13.088Z,13.50
2019-04-11T10:56:34.756Z,9.13
2019-04-11T11:01:40.157Z,11.87
2019-04-11T11:06:46.480Z,10.13
2019-04-11T11:11:54.879Z,14.93
2019-04-11T11:17:06.563Z,15.33
2019-04-11T11:22:18.788Z,9.97
2019-04-11T11:27:24.400Z,10.30
2019-04-11T11:32:27.886Z,10.73
2019-04-11T11:37:35.540Z,8.63
2019-04-11T11:42:40.604Z,8.37
2019-04-11T11:48:02.041Z,9.77
2019-04-11T11:53:25.800Z,9.70
2019-04-11T11:58:51.231Z,10.97
2019-04-11T12:04:00.250Z,10.90
2019-04-11T12:09:16.308Z,9.97
2019-04-11T12:14:22.218Z,11.43
2019-04-11T12:19:27.355Z,12.17
2019-04-11T12:24:38.679Z,10.77
2019-04-11T12:30:02.664Z,10.17
2019-04-11T12:35:24.702Z,9.90
2019-04-11T12:40:45.877Z,8.80
2019-04-11T12:45:50.928Z,8.77
2019-04-11T12:50:58.937Z,9.43
2019-04-11T12:56:12.458Z,8.87
2019-04-11T13:01:26.222Z,8.50
2019-04-11T13:06:49.085Z,10.23
2019-04-11T13:11:56.992Z,12.20
2019-04-11T13:17:07.779Z,9.47
2019-04-11T13:22:12.923Z,10.83
2019-04-11T13:27:18.009Z,8.73
2019-04-11T13:32:23.164Z,8.70
2019-04-11T13:37:44.260Z,7.83
2019-04-11T13:42:55.428Z,9.37
2019-04-11T13:48:03.046Z,9.27
2019-04-11T13:53:24.225Z,8.47
2019-04-11T13:58:32.347Z,11.97
2019-04-11T14:03:37.425Z,11.57
2019-04-11T14:08:59.258Z,12.27
2019-04-11T14:14:05.409Z,8.93
2019-04-11T14:19:19.862Z,9.43
2019-04-11T14:24:33.859Z,8.67
2019-04-11T14:29:44.571Z,11.47
2019-04-11T14:34:52.165Z,9.57
2019-04-11T14:40:00.051Z,11.77
2019-04-11T14:45:06.329Z,8.60
2019-04-11T14:50:12.075Z,7.77
2019-04-11T14:55:16.791Z,8.87
2019-04-11T15:00:29.412Z,10.00
2019-04-11T15:05:34.482Z,9.47
2019-04-11T15:16:06.575Z,9.13
2019-04-11T15:21:14.322Z,9.23
2019-04-11T15:26:28.136Z,9.27
2019-04-11T15:31:41.911Z,9.63
2019-04-11T15:36:46.996Z,10.73
2019-04-11T15:41:57.260Z,8.43
2019-04-11T15:47:00.621Z,7.83
2019-04-11T15:52:06.811Z,11.50
2019-04-11T15:57:12.743Z,9.27
2019-04-11T16:02:18.424Z,10.53
2019-04-11T16:07:26.560Z,9.63
2019-04-11T16:12:34.335Z,8.33
2019-04-11T16:17:39.378Z,9.33
2019-04-11T16:22:50.372Z,9.97
2019-04-11T16:28:11.984Z,8.63
2019-04-11T16:33:22.788Z,8.40
2019-04-11T16:38:44.391Z,8.13
2019-04-11T16:43:49.478Z,7.47
2019-04-11T16:48:55.609Z,9.07
2019-04-11T16:53:58.087Z,9.83
2019-04-11T16:59:01.495Z,7.70
2019-04-11T17:04:04.923Z,8.00
2019-04-11T17:09:27.660Z,6.17
2019-04-11T17:14:33.277Z,8.67
2019-04-11T17:19:36.888Z,8.17
2019-04-11T17:24:40.415Z,7.10
2019-04-11T17:29:43.838Z,8.00
2019-04-11T17:34:47.255Z,5.63
2019-04-11T17:39:50.661Z,7.57
2019-04-11T17:44:54.166Z,6.10
2019-04-11T17:50:04.181Z,7.03
2019-04-11T17:55:06.621Z,8.47
2019-04-11T18:00:11.998Z,7.90
2019-04-11T18:05:17.131Z,6.87
2019-04-11T18:10:20.780Z,8.27
2019-04-11T18:15:24.205Z,7.07
2019-04-11T18:20:27.636Z,6.57
2019-04-11T18:25:31.118Z,7.80
2019-04-11T18:30:34.595Z,7.37
2019-04-11T18:35:38.203Z,7.60
2019-04-11T18:40:41.601Z,6.10
2019-04-11T18:45:45.027Z,10.10
2019-04-11T18:50:50.771Z,8.00
2019-04-11T18:55:53.701Z,7.70
2019-04-11T19:00:57.236Z,10.00
2019-04-11T19:06:00.655Z,6.63
2019-04-11T19:11:04.359Z,7.60
2019-04-11T19:16:07.806Z,9.27
2019-04-11T19:21:11.228Z,6.43
2019-04-11T19:26:15.285Z,7.30
2019-04-11T19:31:18.812Z,5.90
2019-04-11T19:36:22.269Z,6.17
2019-04-11T19:41:25.768Z,7.37
2019-04-11T19:46:29.187Z,6.50
2019-04-11T19:51:32.619Z,8.33
2019-04-11T19:56:37.678Z,5.00
2019-04-11T20:01:41.092Z,5.20
2019-04-11T20:06:44.505Z,8.60
2019-04-11T20:11:48.016Z,5.87
2019-04-11T20:16:52.120Z,6.70
2019-04-11T20:21:55.717Z,6.67
2019-04-11T20:26:59.125Z,5.80
2019-04-11T20:32:02.816Z,7.17
2019-04-11T20:37:06.309Z,5.93
2019-04-11T20:42:09.803Z,6.60
2019-04-11T20:47:13.749Z,6.87
2019-04-11T20:52:17.280Z,4.97
2019-04-11T20:57:25.957Z,4.87
2019-04-11T21:02:28.369Z,6.43
2019-04-11T21:07:31.979Z,7.00
2019-04-11T21:12:37.299Z,6.20
2019-04-11T21:17:41.346Z,4.53
2019-04-11T21:22:44.813Z,5.17
2019-04-11T21:27:48.376Z,4.30
2019-04-11T21:32:51.781Z,7.63
2019-04-11T21:37:57.915Z,4.33
2019-04-11T21:43:01.024Z,3.40
2019-04-11T21:48:05.689Z,6.20
2019-04-11T21:53:13.852Z,3.27
2019-04-11T21:58:19.228Z,4.83
2019-04-11T22:03:23.997Z,3.07
2019-04-11T22:08:25.641Z,5.60
2019-04-11T22:13:29.049Z,3.60
2019-04-11T22:18:32.542Z,3.63
2019-04-11T22:23:48.115Z,4.63
2019-04-11T22:28:41.142Z,3.27
2019-04-11T22:33:46.271Z,4.43
2019-04-11T22:38:49.774Z,3.37
2019-04-11T22:43:53.203Z,3.87
2019-04-11T22:48:56.603Z,3.37
2019-04-11T22:54:00.716Z,3.70
2019-04-11T22:59:04.126Z,3.43
2019-04-11T23:04:07.657Z,2.80
2019-04-11T23:09:11.137Z,3.07
2019-04-11T23:14:15.910Z,3.47
2019-04-11T23:19:20.129Z,2.67
2019-04-11T23:24:23.546Z,5.63
2019-04-11T23:29:26.991Z,3.67
2019-04-11T23:34:30.389Z,2.83
2019-04-11T23:39:33.819Z,4.23
2019-04-11T23:44:37.243Z,3.67
2019-04-11T23:49:40.683Z,3.03
2019-04-11T23:54:44.559Z,4.03
2019-04-11T23:59:47.974Z,3.30
